Flight Track Log - Related Links

Times and Time Zones

All times are in EDT time to prevent confusion due to time zone crossing. See the RPA4264 flight status page for this flight to view local times or setup timezone preferences in your user account.

Time Position Orientation Groundspeed Altitude Reporting Facility
EDT Latitude Longitude Course Direction KTS MPH feet Rate Location/Type
Wed 07:10:20 PM 41.9833 -87.8833 90° East 150 173 1,900  Level Chicago TRACON
Wed 07:11:14 PM 41.9833 -87.8167 90° East 203 234 3,300 2,125 Climbing Chicago TRACON
Wed 07:12:44 PM 41.9847 -87.6681 89° East 270 311 7,000 2,566 Climbing Chicago Center
Wed 07:13:46 PM 41.9931 -87.5586 84° East 292 336 9,800 2,758 Climbing Chicago Center
Wed 07:14:48 PM 42.0194 -87.4500 72° East 304 350 12,700 2,516 Climbing Chicago Center
Wed 07:15:50 PM 42.0483 -87.3281 72° East 319 367 15,000 1,872 Climbing Chicago Center
Wed 07:16:53 PM 42.0797 -87.2047 71° East 348 400 16,600 1,632 Climbing Chicago Center
Wed 07:17:55 PM 42.1100 -87.0733 73° East 372 428 18,400 1,839 Climbing Chicago Center
Wed 07:18:57 PM 42.1169 -86.9244 86° East 393 452 20,400 1,935 Climbing Chicago Center
Wed 07:19:59 PM 42.1236 -86.7622 87° East 403 464 22,400 1,790 Climbing Chicago Center
Wed 07:21:01 PM 42.1297 -86.5986 87° East 413 475 24,100 1,548 Climbing Chicago Center
Wed 07:22:03 PM 42.1342 -86.4397 88° East 421 484 25,600 1,296 Climbing Chicago Center
Wed 07:23:06 PM 42.1397 -86.2764 87° East 434 499 26,800 1,200 Climbing Chicago Center
Wed 07:24:08 PM 42.1444 -86.1106 88° East 437 503 28,100 1,161 Climbing Chicago Center
Wed 07:25:10 PM 42.1428 -85.9222 91° East 446 513 29,200 968 Climbing Chicago Center
Wed 07:26:12 PM 42.1411 -85.7500 91° East 457 526 30,100 823 Climbing Chicago Center
Wed 07:27:14 PM 42.1389 -85.5756 91° East 465 535 30,900 919 Climbing Chicago Center
Wed 07:28:16 PM 42.1369 -85.3639 91° East 472 543 32,000 960 Climbing Chicago Center
Wed 07:29:19 PM 42.1356 -85.1869 91° East 474 545 32,900 480 Climbing Chicago Center
Wed 07:30:21 PM 42.1333 -85.0094 91° East 476 548 33,000 48 Climbing Chicago Center
Wed 07:31:23 PM 42.1297 -84.8344 92° East 475 547 33,000  Level Chicago Center
Wed 07:32:25 PM 42.1272 -84.6594 91° East 472 543 33,000  Level Chicago Center
Wed 07:33:09 PM 42.1233 -84.5300 92° East 468 539 33,000  Level Cleveland Center
Wed 07:34:11 PM 42.1272 -84.3578 88° East 467 537 33,000  Level Cleveland Center
Wed 07:35:14 PM 42.1147 -84.1747 95° East 470 541 33,000  Level Cleveland Center
Wed 07:36:16 PM 42.1000 -83.9639 95° East 473 544 33,000  Level Cleveland Center
Wed 07:37:18 PM 42.0864 -83.7892 96° East 473 544 33,000  Level Cleveland Center
Wed 07:38:20 PM 42.0753 -83.6158 95° East 473 544 33,000  Level Cleveland Center
Wed 07:39:22 PM 42.0592 -83.4292 97° East 476 548 33,000  Level Cleveland Center
Wed 07:40:24 PM 42.0456 -83.2486 96° East 478 550 33,000  Level Cleveland Center
Wed 07:41:27 PM 42.0303 -83.0506 96° East 481 554 33,000  Level Cleveland Center
Wed 07:42:29 PM 42.0167 -82.8719 96° East 482 555 33,000  Level Cleveland Center
Wed 07:43:31 PM 42.0017 -82.6922 96° East 483 556 33,000  Level Cleveland Center
Wed 07:44:33 PM 41.9875 -82.5131 96° East 484 557 33,000  Level Cleveland Center
Wed 07:45:35 PM 41.9692 -82.2969 96° East 484 557 33,000  Level Cleveland Center
Wed 07:46:38 PM 41.9539 -82.1261 97° East 485 558 33,000  Level Cleveland Center
Wed 07:47:40 PM 41.9369 -81.9433 97° East 486 559 33,000  Level Cleveland Center
Wed 07:48:42 PM 41.9208 -81.7594 97° East 487 560 33,000  Level Cleveland Center
Wed 07:49:44 PM 41.9011 -81.5444 97° East 487 560 33,000  Level Cleveland Center
Wed 07:50:46 PM 41.8839 -81.3597 97° East 488 562 33,000  Level Cleveland Center
Wed 07:51:48 PM 41.8669 -81.1767 97° East 489 563 33,000  Level Cleveland Center
Wed 07:52:50 PM 41.8481 -80.9908 98° East 492 566 33,000  Level Cleveland Center
Wed 07:53:53 PM 41.8311 -80.8078 97° East 492 566 33,000  Level Cleveland Center
Wed 07:54:55 PM 41.8128 -80.6228 98° East 492 566 33,000  Level Cleveland Center
Wed 07:55:57 PM 41.7944 -80.4386 98° East 493 567 33,000  Level Cleveland Center
Wed 07:56:59 PM 41.7747 -80.2536 98° East 495 570 33,000  Level Cleveland Center
Wed 07:58:01 PM 41.7514 -80.0375 98° East 498 573 33,000  Level Cleveland Center
Wed 07:59:04 PM 41.7325 -79.8536 98° East 497 572 33,000  Level Cleveland Center
Wed 08:00:06 PM 41.7125 -79.6692 98° East 498 573 33,000  Level Cleveland Center
Wed 08:01:08 PM 41.6889 -79.4683 99° East 495 570 33,000  Level Cleveland Center
Wed 08:02:10 PM 41.6689 -79.2842 98° East 497 572 33,000  Level Cleveland Center
Wed 08:03:12 PM 41.6478 -79.1033 99° East 498 573 33,000  Level Cleveland Center
Wed 08:04:14 PM 41.6275 -78.9222 98° East 496 571 33,000  Level Cleveland Center
Wed 08:05:17 PM 41.6064 -78.7392 99° East 496 571 33,000 -384 Level Cleveland Center
Wed 08:06:19 PM 41.5844 -78.5558 99° East 497 572 32,200 -968 Descending Cleveland Center
Wed 08:07:21 PM 41.5564 -78.3250 99° East 520 598 31,000 -581 Descending Cleveland Center
Wed 08:08:23 PM 41.5319 -78.1297 99° East 527 606 31,000  Level Cleveland Center
Wed 08:09:25 PM 41.5078 -77.9353 99° East 528 608 31,000  Level Cleveland Center
Wed 08:10:27 PM 41.4806 -77.7431 101° East 529 609 31,000  Level Cleveland Center
Wed 08:11:30 PM 41.4522 -77.5481 101° East 532 612 31,000  Level Cleveland Center
Wed 08:12:32 PM 41.4247 -77.3581 101° East 529 609 31,000  Level Cleveland Center
Wed 08:13:34 PM 41.3908 -77.1275 101° East 531 611 31,000  Level Cleveland Center
Wed 08:14:36 PM 41.3622 -76.9350 101° East 531 611 31,000 -968 Level Cleveland Center
Wed 08:15:38 PM 41.3292 -76.7411 103° East 541 623 29,000 -2,365 Descending Cleveland Center
Wed 08:16:53 PM 41.2678 -76.5181 110° East 538 619 25,600 -2,707 Descending New York Center
Wed 08:17:51 PM 41.2178 -76.3400 110° East 526 605 23,000 -2,420 Descending New York Center
Wed 08:18:52 PM 41.1683 -76.1511 109° East 502 578 20,800 -1,850 Descending New York Center
Wed 08:19:51 PM 41.1325 -76.0189 110° East 489 563 19,300 -1,966 Descending New York Center
Wed 08:20:51 PM 41.0861 -75.8444 109° East 467 537 16,900 -2,479 Descending New York Center
Wed 08:21:52 PM 41.0431 -75.6789 109° East 445 512 14,300 -1,918 Descending New York Center
Wed 08:22:53 PM 41.0008 -75.5358 111° Southeast 428 493 13,000 -1,271 Descending New York Center
Wed 08:23:50 PM 40.9644 -75.4042 110° East 398 458 11,800 -1,462 Descending New York Center
Wed 08:24:52 PM 40.9333 -75.2919 110° East 348 400 10,100 -2,000 Descending New York Center
Wed 08:25:53 PM 40.9039 -75.1911 111° Southeast 314 361 7,700 -1,550 Descending New York Center
Wed 08:26:52 PM 40.8781 -75.0989 110° East 292 336 7,000 -356 Descending New York Center
Wed 08:27:51 PM 40.8378 -75.0058 120° Southeast 292 336 7,000  Level New York Center
Wed 08:28:52 PM 40.7828 -74.9094 127° Southeast 297 342 7,000  Level New York Center
Wed 08:29:53 PM 40.7358 -74.8242 126° Southeast 303 349 7,000 -300 Level New York Center
Wed 08:30:52 PM 40.7331 -74.7200 92° East 277 319 6,400 -500 Descending New York Center
Wed 08:31:53 PM 40.7792 -74.6489 49° Northeast 245 282 6,000 -252 Descending New York Center
Wed 08:32:51 PM 40.8258 -74.5608 55° Northeast 270 311 5,900 -504 Descending New York Center
Wed 08:33:52 PM 40.8611 -74.4997 53° Northeast 246 283 5,000 -446 Descending New York Center
Wed 08:34:52 PM 40.9008 -74.4250 55° Northeast 234 269 5,000  Level New York Center
Wed 08:35:52 PM 40.9361 -74.3667 51° Northeast 228 262 5,000 -184 Level New York Center
Wed 08:36:30 PM 40.9500 -74.3167 70° East 240 276 4,700 -612 Descending New York TRACON
Wed 08:37:30 PM 40.9667 -74.2167 78° East 226 260 4,000 -350 Descending New York TRACON
Wed 08:38:30 PM 40.9333 -74.1500 123° Southeast 207 238 4,000 -450 Level New York TRACON
Wed 08:39:30 PM 40.9000 -74.1000 131° Southeast 211 243 3,100 -600 Descending New York TRACON
Wed 08:40:30 PM 40.8500 -74.0833 166° South 205 236 2,800 -400 Descending New York TRACON
Wed 08:41:30 PM 40.8000 -74.1000 194° South 177 204 2,300 -750 Descending New York TRACON
Wed 08:42:30 PM 40.7500 -74.1167 194° South 167 192 1,300 -900 Descending New York TRACON
Wed 08:43:30 PM 40.7167 -74.1500 217° Southwest 140 161 500 -800 Descending New York TRACON

Login

Don't have an account? Register now (free) for customized features, flight alerts, and more!